KMTW/MTW METAR and TAF weather

Enter ICAO airport designator
Station Type Date Time Source
KMTW METAR 2022/12/04 09:56 UTC NOAA

KMTW 040956Z AUTO 22005KT 10SM CLR M08/M12 A3016 RMK AO2 SLP228 T10781122 FZRANO


Station Type Date Time Source
KMTW Decoded METAR 2022/12/04 09:56 UTC NOAA

Manitowoc, Manitowoc County Airport, WI, United States (KMTW) 44-08N 087-41W
Dec 04, 2022 - 04:56 AM EST / 2022.12.04 0956 UTC
Wind: from the SW (220 degrees) at 6 MPH (5 KT):0
Visibility: 10 mile(s):0
Sky conditions: clear
Temperature: 18.0 F (-7.8 C)
Windchill: 10 F (-12 C):1
Dew Point: 10.0 F (-12.2 C)
Relative Humidity: 70%
Pressure (altimeter): 30.16 in. Hg (1021 hPa)
ob: KMTW 040956Z AUTO 22005KT 10SM CLR M08/M12 A3016 RMK AO2 SLP228 T10781122 FZRANO
cycle: 10

Station Type Date Time Source
KMTW TAF 2022/12/04 12:22 UTC NOAA

TAF KMTW 041120Z 0412/0512 24011G18KT P6SM SCT120
FM050000 22014G22KT P6SM SCT120 WS020/26040KT
FM050800 23009G17KT P6SM SCT200 WS019/26040KT
FM051100 23008KT P6SM BKN200

Example: see airport list